sensor_id;sensor_type;location;lat;lon;timestamp;temperature;humidity
30473;DHT22;17263;48.160;11.452;2023-01-05T00:02:25;10.00;99.90
30473;DHT22;17263;48.160;11.452;2023-01-05T00:04:51;9.90;99.90
30473;DHT22;17263;48.160;11.452;2023-01-05T00:07:17;10.00;99.90
30473;DHT22;17263;48.160;11.452;2023-01-05T00:09:43;10.00;99.90
30473;DHT22;17263;48.160;11.452;2023-01-05T00:12:09;10.00;99.90
30473;DHT22;17263;48.160;11.452;2023-01-05T00:14:54;10.00;99.90
30473;DHT22;17263;48.160;11.452;2023-01-05T00:17:38;9.90;99.90
30473;DHT22;17263;48.160;11.452;2023-01-05T00:20:23;9.90;99.90
30473;DHT22;17263;48.160;11.452;2023-01-05T00:23:08;9.90;99.90
30473;DHT22;17263;48.160;11.452;2023-01-05T00:25:38;9.90;99.90
30473;DHT22;17263;48.160;11.452;2023-01-05T00:28:05;9.90;99.90
30473;DHT22;17263;48.160;11.452;2023-01-05T00:30:39;9.90;99.90
30473;DHT22;17263;48.160;11.452;2023-01-05T00:33:10;9.90;99.90
30473;DHT22;17263;48.160;11.452;2023-01-05T00:35:37;9.90;99.90
30473;DHT22;17263;48.160;11.452;2023-01-05T00:38:04;10.00;99.90
30473;DHT22;17263;48.160;11.452;2023-01-05T00:40:30;10.00;99.90
30473;DHT22;17263;48.160;11.452;2023-01-05T00:42:57;10.10;99.90
30473;DHT22;17263;48.160;11.452;2023-01-05T00:45:23;10.10;99.90
30473;DHT22;17263;48.160;11.452;2023-01-05T00:47:49;10.10;99.90
30473;DHT22;17263;48.160;11.452;2023-01-05T00:50:17;10.10;99.90
30473;DHT22;17263;48.160;11.452;2023-01-05T00:52:44;10.10;99.90
30473;DHT22;17263;48.160;11.452;2023-01-05T00:55:11;10.10;99.90
30473;DHT22;17263;48.160;11.452;2023-01-05T00:57:37;10.10;99.90
30473;DHT22;17263;48.160;11.452;2023-01-05T01:00:05;10.10;99.90
30473;DHT22;17263;48.160;11.452;2023-01-05T01:02:31;10.10;99.90
30473;DHT22;17263;48.160;11.452;2023-01-05T01:04:57;10.20;99.90
30473;DHT22;17263;48.160;11.452;2023-01-05T01:07:23;10.20;99.90
30473;DHT22;17263;48.160;11.452;2023-01-05T01:09:49;10.10;99.90
30473;DHT22;17263;48.160;11.452;2023-01-05T01:12:15;10.20;99.90
30473;DHT22;17263;48.160;11.452;2023-01-05T01:14:41;10.20;99.90
30473;DHT22;17263;48.160;11.452;2023-01-05T01:17:10;10.10;99.90
30473;DHT22;17263;48.160;11.452;2023-01-05T01:19:36;10.20;99.90
30473;DHT22;17263;48.160;11.452;2023-01-05T01:22:03;10.20;99.90
30473;DHT22;17263;48.160;11.452;2023-01-05T01:24:30;10.20;99.90
30473;DHT22;17263;48.160;11.452;2023-01-05T01:26:56;10.20;99.90
30473;DHT22;17263;48.160;11.452;2023-01-05T01:29:23;10.20;99.90
30473;DHT22;17263;48.160;11.452;2023-01-05T01:31:51;10.20;99.90
30473;DHT22;17263;48.160;11.452;2023-01-05T01:34:18;10.20;99.90
30473;DHT22;17263;48.160;11.452;2023-01-05T01:36:44;10.20;99.90
30473;DHT22;17263;48.160;11.452;2023-01-05T01:39:11;10.10;99.90
30473;DHT22;17263;48.160;11.452;2023-01-05T01:41:38;10.20;99.90
30473;DHT22;17263;48.160;11.452;2023-01-05T01:47:13;10.30;99.90
30473;DHT22;17263;48.160;11.452;2023-01-05T01:49:40;10.30;99.90
30473;DHT22;17263;48.160;11.452;2023-01-05T01:52:06;10.20;99.90
30473;DHT22;17263;48.160;11.452;2023-01-05T01:54:32;10.20;99.90
30473;DHT22;17263;48.160;11.452;2023-01-05T01:56:58;10.10;99.90
30473;DHT22;17263;48.160;11.452;2023-01-05T01:59:25;10.10;99.90
30473;DHT22;17263;48.160;11.452;2023-01-05T02:01:54;10.20;99.90
30473;DHT22;17263;48.160;11.452;2023-01-05T02:04:23;10.20;99.90
30473;DHT22;17263;48.160;11.452;2023-01-05T02:06:50;10.20;99.90
30473;DHT22;17263;48.160;11.452;2023-01-05T02:09:17;10.20;99.90
30473;DHT22;17263;48.160;11.452;2023-01-05T02:17:57;10.10;99.90
30473;DHT22;17263;48.160;11.452;2023-01-05T02:22:56;10.10;99.90
30473;DHT22;17263;48.160;11.452;2023-01-05T02:31:17;10.10;99.90
30473;DHT22;17263;48.160;11.452;2023-01-05T02:37:14;10.20;99.90
30473;DHT22;17263;48.160;11.452;2023-01-05T02:39:55;10.20;99.90
30473;DHT22;17263;48.160;11.452;2023-01-05T02:42:23;10.20;99.90
30473;DHT22;17263;48.160;11.452;2023-01-05T02:44:51;10.20;99.90
30473;DHT22;17263;48.160;11.452;2023-01-05T02:50:05;10.20;99.90
30473;DHT22;17263;48.160;11.452;2023-01-05T02:52:41;10.20;99.90
30473;DHT22;17263;48.160;11.452;2023-01-05T02:55:11;10.10;99.90
30473;DHT22;17263;48.160;11.452;2023-01-05T02:57:44;10.10;99.90
30473;DHT22;17263;48.160;11.452;2023-01-05T03:00:39;10.10;99.90
30473;DHT22;17263;48.160;11.452;2023-01-05T03:05:58;9.80;99.90
30473;DHT22;17263;48.160;11.452;2023-01-05T03:08:28;9.80;99.90
30473;DHT22;17263;48.160;11.452;2023-01-05T03:11:07;9.70;99.90
30473;DHT22;17263;48.160;11.452;2023-01-05T03:14:31;9.70;99.90
30473;DHT22;17263;48.160;11.452;2023-01-05T03:17:00;9.70;99.90
30473;DHT22;17263;48.160;11.452;2023-01-05T03:19:27;9.60;99.90
30473;DHT22;17263;48.160;11.452;2023-01-05T03:22:12;9.60;99.90
30473;DHT22;17263;48.160;11.452;2023-01-05T03:24:59;9.60;99.90
30473;DHT22;17263;48.160;11.452;2023-01-05T03:27:45;9.70;99.90
30473;DHT22;17263;48.160;11.452;2023-01-05T03:30:53;9.70;99.90
30473;DHT22;17263;48.160;11.452;2023-01-05T03:33:48;9.70;99.90
30473;DHT22;17263;48.160;11.452;2023-01-05T03:36:43;9.70;99.90
30473;DHT22;17263;48.160;11.452;2023-01-05T03:39:13;9.80;99.90
30473;DHT22;17263;48.160;11.452;2023-01-05T03:41:41;9.80;99.90
30473;DHT22;17263;48.160;11.452;2023-01-05T03:44:07;9.80;99.90
30473;DHT22;17263;48.160;11.452;2023-01-05T03:46:33;9.80;99.90
30473;DHT22;17263;48.160;11.452;2023-01-05T03:48:59;9.80;99.90
30473;DHT22;17263;48.160;11.452;2023-01-05T03:51:26;9.90;99.90
30473;DHT22;17263;48.160;11.452;2023-01-05T03:53:52;9.90;99.90
30473;DHT22;17263;48.160;11.452;2023-01-05T03:56:18;9.90;99.90
30473;DHT22;17263;48.160;11.452;2023-01-05T03:58:44;10.00;99.90
30473;DHT22;17263;48.160;11.452;2023-01-05T04:01:10;10.00;99.90
30473;DHT22;17263;48.160;11.452;2023-01-05T04:03:36;10.00;99.90
30473;DHT22;17263;48.160;11.452;2023-01-05T04:06:03;10.10;99.90
30473;DHT22;17263;48.160;11.452;2023-01-05T04:08:29;10.00;99.90
30473;DHT22;17263;48.160;11.452;2023-01-05T04:10:55;10.00;99.90
30473;DHT22;17263;48.160;11.452;2023-01-05T04:13:21;10.10;99.90
30473;DHT22;17263;48.160;11.452;2023-01-05T04:15:47;10.10;99.90
30473;DHT22;17263;48.160;11.452;2023-01-05T04:18:13;10.10;99.90
30473;DHT22;17263;48.160;11.452;2023-01-05T04:20:40;10.10;99.90
30473;DHT22;17263;48.160;11.452;2023-01-05T04:23:06;10.20;99.90
30473;DHT22;17263;48.160;11.452;2023-01-05T04:25:32;10.30;99.90
30473;DHT22;17263;48.160;11.452;2023-01-05T04:27:58;10.20;99.90
30473;DHT22;17263;48.160;11.452;2023-01-05T04:30:24;10.20;99.90
30473;DHT22;17263;48.160;11.452;2023-01-05T04:32:50;10.20;99.90
30473;DHT22;17263;48.160;11.452;2023-01-05T04:35:16;10.30;99.90
30473;DHT22;17263;48.160;11.452;2023-01-05T04:37:42;10.30;99.90
30473;DHT22;17263;48.160;11.452;2023-01-05T04:40:08;10.30;99.90
30473;DHT22;17263;48.160;11.452;2023-01-05T04:42:35;10.30;99.90
30473;DHT22;17263;48.160;11.452;2023-01-05T04:45:00;10.40;99.90
30473;DHT22;17263;48.160;11.452;2023-01-05T04:47:27;10.40;99.90
30473;DHT22;17263;48.160;11.452;2023-01-05T04:49:52;10.40;99.90
30473;DHT22;17263;48.160;11.452;2023-01-05T04:52:19;10.30;99.90
30473;DHT22;17263;48.160;11.452;2023-01-05T04:54:45;10.40;99.90
30473;DHT22;17263;48.160;11.452;2023-01-05T04:57:11;10.40;99.90
30473;DHT22;17263;48.160;11.452;2023-01-05T04:59:37;10.50;99.90
30473;DHT22;17263;48.160;11.452;2023-01-05T05:02:03;10.40;99.90
30473;DHT22;17263;48.160;11.452;2023-01-05T05:04:29;10.50;99.90
30473;DHT22;17263;48.160;11.452;2023-01-05T05:06:55;10.50;99.90
30473;DHT22;17263;48.160;11.452;2023-01-05T05:09:21;10.50;99.90
30473;DHT22;17263;48.160;11.452;2023-01-05T05:11:47;10.50;99.90
30473;DHT22;17263;48.160;11.452;2023-01-05T05:14:13;10.50;99.90
30473;DHT22;17263;48.160;11.452;2023-01-05T05:16:39;10.50;99.90
30473;DHT22;17263;48.160;11.452;2023-01-05T05:19:05;10.60;99.90
30473;DHT22;17263;48.160;11.452;2023-01-05T05:21:31;10.50;99.90
30473;DHT22;17263;48.160;11.452;2023-01-05T05:23:57;10.50;99.90
30473;DHT22;17263;48.160;11.452;2023-01-05T05:26:23;10.50;99.90
30473;DHT22;17263;48.160;11.452;2023-01-05T05:28:49;10.50;99.90
30473;DHT22;17263;48.160;11.452;2023-01-05T05:31:15;10.50;99.90
30473;DHT22;17263;48.160;11.452;2023-01-05T05:33:41;10.50;99.90
30473;DHT22;17263;48.160;11.452;2023-01-05T05:36:07;10.50;99.90
30473;DHT22;17263;48.160;11.452;2023-01-05T05:38:33;10.50;99.90
30473;DHT22;17263;48.160;11.452;2023-01-05T05:40:59;10.50;99.90
30473;DHT22;17263;48.160;11.452;2023-01-05T05:43:25;10.50;99.90
30473;DHT22;17263;48.160;11.452;2023-01-05T05:45:51;10.50;99.90
30473;DHT22;17263;48.160;11.452;2023-01-05T05:48:18;10.50;99.90
30473;DHT22;17263;48.160;11.452;2023-01-05T05:50:44;10.50;99.90
30473;DHT22;17263;48.160;11.452;2023-01-05T05:53:11;10.50;99.90
30473;DHT22;17263;48.160;11.452;2023-01-05T05:55:37;10.50;99.90
30473;DHT22;17263;48.160;11.452;2023-01-05T05:58:03;10.50;99.90
30473;DHT22;17263;48.160;11.452;2023-01-05T06:00:29;10.50;99.90
30473;DHT22;17263;48.160;11.452;2023-01-05T06:02:55;10.50;99.90
30473;DHT22;17263;48.160;11.452;2023-01-05T06:05:21;10.50;99.90
30473;DHT22;17263;48.160;11.452;2023-01-05T06:07:47;10.50;99.90
30473;DHT22;17263;48.160;11.452;2023-01-05T06:10:13;10.50;99.90
30473;DHT22;17263;48.160;11.452;2023-01-05T06:12:39;10.50;99.90
30473;DHT22;17263;48.160;11.452;2023-01-05T06:15:05;10.50;99.90
30473;DHT22;17263;48.160;11.452;2023-01-05T06:17:31;10.50;99.90
30473;DHT22;17263;48.160;11.452;2023-01-05T06:19:57;10.50;99.90
30473;DHT22;17263;48.160;11.452;2023-01-05T06:22:23;10.40;99.90
30473;DHT22;17263;48.160;11.452;2023-01-05T06:24:49;10.40;99.90
30473;DHT22;17263;48.160;11.452;2023-01-05T06:27:15;10.50;99.90
30473;DHT22;17263;48.160;11.452;2023-01-05T06:29:41;10.40;99.90
30473;DHT22;17263;48.160;11.452;2023-01-05T06:32:07;10.50;99.90
30473;DHT22;17263;48.160;11.452;2023-01-05T06:34:33;10.50;99.90
30473;DHT22;17263;48.160;11.452;2023-01-05T06:36:59;10.50;99.90
30473;DHT22;17263;48.160;11.452;2023-01-05T06:39:25;10.50;99.90
30473;DHT22;17263;48.160;11.452;2023-01-05T06:41:51;10.40;99.90
30473;DHT22;17263;48.160;11.452;2023-01-05T06:44:17;10.40;99.90
30473;DHT22;17263;48.160;11.452;2023-01-05T06:46:43;10.40;99.90
30473;DHT22;17263;48.160;11.452;2023-01-05T06:49:10;10.40;99.90
30473;DHT22;17263;48.160;11.452;2023-01-05T06:51:36;10.40;99.90
30473;DHT22;17263;48.160;11.452;2023-01-05T06:54:05;10.30;99.90
30473;DHT22;17263;48.160;11.452;2023-01-05T06:56:32;10.30;99.90
30473;DHT22;17263;48.160;11.452;2023-01-05T06:58:58;10.30;99.90
30473;DHT22;17263;48.160;11.452;2023-01-05T07:01:24;10.30;99.90
30473;DHT22;17263;48.160;11.452;2023-01-05T07:03:50;10.40;99.90
30473;DHT22;17263;48.160;11.452;2023-01-05T07:06:16;10.40;99.90
30473;DHT22;17263;48.160;11.452;2023-01-05T07:08:42;10.40;99.90
30473;DHT22;17263;48.160;11.452;2023-01-05T07:11:08;10.40;99.90
30473;DHT22;17263;48.160;11.452;2023-01-05T07:13:34;10.40;99.90
30473;DHT22;17263;48.160;11.452;2023-01-05T07:16:01;10.40;99.90
30473;DHT22;17263;48.160;11.452;2023-01-05T07:18:27;10.40;99.90
30473;DHT22;17263;48.160;11.452;2023-01-05T07:20:53;10.40;99.90
30473;DHT22;17263;48.160;11.452;2023-01-05T07:23:19;10.40;99.90
30473;DHT22;17263;48.160;11.452;2023-01-05T07:25:45;10.40;99.90
30473;DHT22;17263;48.160;11.452;2023-01-05T07:28:11;10.40;99.90
30473;DHT22;17263;48.160;11.452;2023-01-05T07:30:37;10.50;99.90
30473;DHT22;17263;48.160;11.452;2023-01-05T07:33:03;10.40;99.90
30473;DHT22;17263;48.160;11.452;2023-01-05T07:35:30;10.40;99.90
30473;DHT22;17263;48.160;11.452;2023-01-05T07:37:57;10.40;99.90
30473;DHT22;17263;48.160;11.452;2023-01-05T07:40:23;10.40;99.90
30473;DHT22;17263;48.160;11.452;2023-01-05T07:42:52;10.40;99.90
30473;DHT22;17263;48.160;11.452;2023-01-05T07:45:19;10.40;99.90
30473;DHT22;17263;48.160;11.452;2023-01-05T07:47:45;10.50;99.90
30473;DHT22;17263;48.160;11.452;2023-01-05T07:50:12;10.50;99.90
30473;DHT22;17263;48.160;11.452;2023-01-05T07:52:38;10.60;99.90
30473;DHT22;17263;48.160;11.452;2023-01-05T07:55:05;10.60;99.90
30473;DHT22;17263;48.160;11.452;2023-01-05T07:57:31;10.60;99.90
30473;DHT22;17263;48.160;11.452;2023-01-05T07:59:57;10.50;99.90
30473;DHT22;17263;48.160;11.452;2023-01-05T08:02:23;10.60;99.90
30473;DHT22;17263;48.160;11.452;2023-01-05T08:04:49;10.60;99.90
30473;DHT22;17263;48.160;11.452;2023-01-05T08:07:15;10.60;99.90
30473;DHT22;17263;48.160;11.452;2023-01-05T08:09:41;10.60;99.90
30473;DHT22;17263;48.160;11.452;2023-01-05T08:12:27;10.60;99.90
30473;DHT22;17263;48.160;11.452;2023-01-05T08:14:53;10.70;99.90
30473;DHT22;17263;48.160;11.452;2023-01-05T08:17:19;10.70;99.90
30473;DHT22;17263;48.160;11.452;2023-01-05T08:19:45;10.70;99.90
30473;DHT22;17263;48.160;11.452;2023-01-05T08:22:11;10.80;99.90
30473;DHT22;17263;48.160;11.452;2023-01-05T08:24:38;10.80;99.90
30473;DHT22;17263;48.160;11.452;2023-01-05T08:27:04;10.70;99.90
30473;DHT22;17263;48.160;11.452;2023-01-05T08:29:30;10.70;99.90
30473;DHT22;17263;48.160;11.452;2023-01-05T08:31:56;10.70;99.90
30473;DHT22;17263;48.160;11.452;2023-01-05T08:34:22;10.70;99.90
30473;DHT22;17263;48.160;11.452;2023-01-05T08:36:48;10.70;99.90
30473;DHT22;17263;48.160;11.452;2023-01-05T08:39:14;10.60;99.90
30473;DHT22;17263;48.160;11.452;2023-01-05T08:41:40;10.60;99.90
30473;DHT22;17263;48.160;11.452;2023-01-05T08:44:10;10.60;99.90
30473;DHT22;17263;48.160;11.452;2023-01-05T08:46:37;10.60;99.90
30473;DHT22;17263;48.160;11.452;2023-01-05T08:49:05;10.60;99.90
30473;DHT22;17263;48.160;11.452;2023-01-05T08:51:32;10.50;99.90
30473;DHT22;17263;48.160;11.452;2023-01-05T08:53:58;10.50;99.90
30473;DHT22;17263;48.160;11.452;2023-01-05T08:56:25;10.50;99.90
30473;DHT22;17263;48.160;11.452;2023-01-05T08:58:52;10.50;99.90
30473;DHT22;17263;48.160;11.452;2023-01-05T09:01:20;10.40;99.90
30473;DHT22;17263;48.160;11.452;2023-01-05T09:03:49;10.40;99.90
30473;DHT22;17263;48.160;11.452;2023-01-05T09:06:16;10.50;99.90
30473;DHT22;17263;48.160;11.452;2023-01-05T09:08:45;10.50;99.90
30473;DHT22;17263;48.160;11.452;2023-01-05T09:13:51;10.60;99.90
30473;DHT22;17263;48.160;11.452;2023-01-05T09:16:19;10.70;99.90
30473;DHT22;17263;48.160;11.452;2023-01-05T09:18:46;10.70;99.90
30473;DHT22;17263;48.160;11.452;2023-01-05T09:21:12;10.70;99.90
30473;DHT22;17263;48.160;11.452;2023-01-05T09:23:39;10.80;99.90
30473;DHT22;17263;48.160;11.452;2023-01-05T09:26:06;10.70;99.90
30473;DHT22;17263;48.160;11.452;2023-01-05T09:28:33;10.70;99.90
30473;DHT22;17263;48.160;11.452;2023-01-05T09:31:16;10.80;99.90
30473;DHT22;17263;48.160;11.452;2023-01-05T09:33:42;10.80;99.90
30473;DHT22;17263;48.160;11.452;2023-01-05T09:36:10;10.90;99.90
30473;DHT22;17263;48.160;11.452;2023-01-05T09:38:37;10.90;99.90
30473;DHT22;17263;48.160;11.452;2023-01-05T09:41:42;10.90;99.90
30473;DHT22;17263;48.160;11.452;2023-01-05T09:44:32;10.90;99.90
30473;DHT22;17263;48.160;11.452;2023-01-05T09:47:02;11.00;99.90
30473;DHT22;17263;48.160;11.452;2023-01-05T09:49:30;11.10;99.90
30473;DHT22;17263;48.160;11.452;2023-01-05T09:52:03;11.10;99.90
30473;DHT22;17263;48.160;11.452;2023-01-05T09:54:35;11.20;99.90
30473;DHT22;17263;48.160;11.452;2023-01-05T09:57:03;11.20;99.90
30473;DHT22;17263;48.160;11.452;2023-01-05T09:59:42;11.20;99.90
30473;DHT22;17263;48.160;11.452;2023-01-05T10:03:07;11.20;99.90
30473;DHT22;17263;48.160;11.452;2023-01-05T10:05:06;11.10;99.90
30473;DHT22;17263;48.160;11.452;2023-01-05T10:07:51;11.20;99.90
30473;DHT22;17263;48.160;11.452;2023-01-05T10:13:05;11.30;99.90
30473;DHT22;17263;48.160;11.452;2023-01-05T10:15:47;11.30;99.90
30473;DHT22;17263;48.160;11.452;2023-01-05T10:18:24;11.30;99.90
30473;DHT22;17263;48.160;11.452;2023-01-05T10:21:01;11.40;99.90
30473;DHT22;17263;48.160;11.452;2023-01-05T10:26:27;11.40;99.90
30473;DHT22;17263;48.160;11.452;2023-01-05T10:29:06;11.40;99.90
30473;DHT22;17263;48.160;11.452;2023-01-05T10:31:44;11.40;99.90
30473;DHT22;17263;48.160;11.452;2023-01-05T10:34:22;11.50;99.90
30473;DHT22;17263;48.160;11.452;2023-01-05T10:36:58;11.50;99.90
30473;DHT22;17263;48.160;11.452;2023-01-05T10:40:03;11.50;99.90
30473;DHT22;17263;48.160;11.452;2023-01-05T10:45:32;11.50;99.90
30473;DHT22;17263;48.160;11.452;2023-01-05T10:48:00;11.50;99.90
30473;DHT22;17263;48.160;11.452;2023-01-05T10:50:35;11.50;99.90
30473;DHT22;17263;48.160;11.452;2023-01-05T10:53:17;11.40;99.90
30473;DHT22;17263;48.160;11.452;2023-01-05T10:58:27;11.50;99.90
30473;DHT22;17263;48.160;11.452;2023-01-05T11:01:02;11.40;99.90
30473;DHT22;17263;48.160;11.452;2023-01-05T11:03:39;11.50;99.90
30473;DHT22;17263;48.160;11.452;2023-01-05T11:06:06;11.40;99.90
30473;DHT22;17263;48.160;11.452;2023-01-05T11:08:34;11.50;99.90
30473;DHT22;17263;48.160;11.452;2023-01-05T11:11:06;11.50;99.90
30473;DHT22;17263;48.160;11.452;2023-01-05T11:13:35;11.50;99.90
30473;DHT22;17263;48.160;11.452;2023-01-05T11:16:39;11.60;99.90
30473;DHT22;17263;48.160;11.452;2023-01-05T11:19:00;11.60;99.90
30473;DHT22;17263;48.160;11.452;2023-01-05T11:21:39;11.50;99.90
30473;DHT22;17263;48.160;11.452;2023-01-05T11:24:30;11.60;99.90
30473;DHT22;17263;48.160;11.452;2023-01-05T11:27:01;11.60;99.90
30473;DHT22;17263;48.160;11.452;2023-01-05T11:29:29;11.60;99.90
30473;DHT22;17263;48.160;11.452;2023-01-05T11:32:04;11.50;99.90
30473;DHT22;17263;48.160;11.452;2023-01-05T11:34:46;11.40;99.90
30473;DHT22;17263;48.160;11.452;2023-01-05T11:37:27;11.40;99.90
30473;DHT22;17263;48.160;11.452;2023-01-05T11:39:59;11.40;99.90
30473;DHT22;17263;48.160;11.452;2023-01-05T11:45:01;11.30;99.90
30473;DHT22;17263;48.160;11.452;2023-01-05T11:47:42;11.40;99.90
30473;DHT22;17263;48.160;11.452;2023-01-05T11:52:39;11.40;99.90
30473;DHT22;17263;48.160;11.452;2023-01-05T11:55:28;11.40;99.90
30473;DHT22;17263;48.160;11.452;2023-01-05T11:58:16;11.40;99.90
30473;DHT22;17263;48.160;11.452;2023-01-05T12:00:56;11.40;99.90
30473;DHT22;17263;48.160;11.452;2023-01-05T12:09:37;11.40;99.90
30473;DHT22;17263;48.160;11.452;2023-01-05T12:14:59;11.50;99.90
30473;DHT22;17263;48.160;11.452;2023-01-05T12:20:54;11.60;99.90
30473;DHT22;17263;48.160;11.452;2023-01-05T12:23:52;11.70;99.90
30473;DHT22;17263;48.160;11.452;2023-01-05T12:26:28;11.70;99.90
30473;DHT22;17263;48.160;11.452;2023-01-05T12:46:53;12.00;99.90
30473;DHT22;17263;48.160;11.452;2023-01-05T12:49:27;11.90;99.90
30473;DHT22;17263;48.160;11.452;2023-01-05T12:55:14;11.80;99.90
30473;DHT22;17263;48.160;11.452;2023-01-05T12:57:47;11.70;99.90
30473;DHT22;17263;48.160;11.452;2023-01-05T13:00:17;11.70;99.90
30473;DHT22;17263;48.160;11.452;2023-01-05T13:03:09;11.60;99.90
30473;DHT22;17263;48.160;11.452;2023-01-05T13:05:58;11.70;99.90
30473;DHT22;17263;48.160;11.452;2023-01-05T13:08:32;11.70;99.90
30473;DHT22;17263;48.160;11.452;2023-01-05T13:13:47;11.70;99.90
30473;DHT22;17263;48.160;11.452;2023-01-05T13:16:22;11.80;99.90
30473;DHT22;17263;48.160;11.452;2023-01-05T13:21:55;11.70;99.90
30473;DHT22;17263;48.160;11.452;2023-01-05T13:24:31;11.70;99.90
30473;DHT22;17263;48.160;11.452;2023-01-05T13:27:00;11.60;99.90
30473;DHT22;17263;48.160;11.452;2023-01-05T13:29:35;11.70;99.90
30473;DHT22;17263;48.160;11.452;2023-01-05T13:32:27;11.70;99.90
30473;DHT22;17263;48.160;11.452;2023-01-05T13:35:17;11.70;99.90
30473;DHT22;17263;48.160;11.452;2023-01-05T13:37:50;11.70;99.90
30473;DHT22;17263;48.160;11.452;2023-01-05T13:40:25;11.60;99.90
30473;DHT22;17263;48.160;11.452;2023-01-05T13:43:10;11.60;99.90
30473;DHT22;17263;48.160;11.452;2023-01-05T13:51:14;11.50;99.90
30473;DHT22;17263;48.160;11.452;2023-01-05T13:53:47;11.40;99.90
30473;DHT22;17263;48.160;11.452;2023-01-05T13:56:21;11.30;99.90
30473;DHT22;17263;48.160;11.452;2023-01-05T13:58:51;11.30;99.90
30473;DHT22;17263;48.160;11.452;2023-01-05T14:01:52;11.30;99.90
30473;DHT22;17263;48.160;11.452;2023-01-05T14:04:22;11.30;99.90
30473;DHT22;17263;48.160;11.452;2023-01-05T14:06:52;11.20;99.90
30473;DHT22;17263;48.160;11.452;2023-01-05T14:09:35;11.10;99.90
30473;DHT22;17263;48.160;11.452;2023-01-05T14:25:57;11.10;99.90
30473;DHT22;17263;48.160;11.452;2023-01-05T14:34:00;11.00;99.90
30473;DHT22;17263;48.160;11.452;2023-01-05T14:42:04;10.80;99.90
30473;DHT22;17263;48.160;11.452;2023-01-05T14:44:35;10.80;99.90
30473;DHT22;17263;48.160;11.452;2023-01-05T14:47:07;10.70;99.90
30473;DHT22;17263;48.160;11.452;2023-01-05T14:50:00;10.70;99.90
30473;DHT22;17263;48.160;11.452;2023-01-05T14:52:56;10.60;99.90
30473;DHT22;17263;48.160;11.452;2023-01-05T14:55:29;10.60;99.90
30473;DHT22;17263;48.160;11.452;2023-01-05T14:57:57;10.50;99.90
30473;DHT22;17263;48.160;11.452;2023-01-05T15:00:51;10.50;99.90
30473;DHT22;17263;48.160;11.452;2023-01-05T15:03:24;10.50;99.90
30473;DHT22;17263;48.160;11.452;2023-01-05T15:09:28;10.50;99.90
30473;DHT22;17263;48.160;11.452;2023-01-05T15:17:08;10.50;99.90
30473;DHT22;17263;48.160;11.452;2023-01-05T15:25:35;10.30;99.90
30473;DHT22;17263;48.160;11.452;2023-01-05T15:31:06;10.20;99.90
30473;DHT22;17263;48.160;11.452;2023-01-05T15:36:30;10.20;99.90
30473;DHT22;17263;48.160;11.452;2023-01-05T15:38:56;10.20;99.90
30473;DHT22;17263;48.160;11.452;2023-01-05T15:41:23;10.10;99.90
30473;DHT22;17263;48.160;11.452;2023-01-05T15:43:51;10.20;99.90
30473;DHT22;17263;48.160;11.452;2023-01-05T15:46:31;10.20;99.90
30473;DHT22;17263;48.160;11.452;2023-01-05T15:48:57;10.10;99.90
30473;DHT22;17263;48.160;11.452;2023-01-05T15:51:26;10.10;99.90
30473;DHT22;17263;48.160;11.452;2023-01-05T15:53:58;10.10;99.90
30473;DHT22;17263;48.160;11.452;2023-01-05T15:56:28;10.10;99.90
30473;DHT22;17263;48.160;11.452;2023-01-05T15:58:55;10.10;99.90
30473;DHT22;17263;48.160;11.452;2023-01-05T16:01:21;10.00;99.90
30473;DHT22;17263;48.160;11.452;2023-01-05T16:03:48;9.90;99.90
30473;DHT22;17263;48.160;11.452;2023-01-05T16:08:46;10.00;99.90
30473;DHT22;17263;48.160;11.452;2023-01-05T16:11:23;10.00;99.90
30473;DHT22;17263;48.160;11.452;2023-01-05T16:14:21;10.00;99.90
30473;DHT22;17263;48.160;11.452;2023-01-05T16:16:53;9.90;99.90
30473;DHT22;17263;48.160;11.452;2023-01-05T16:19:36;9.90;99.90
30473;DHT22;17263;48.160;11.452;2023-01-05T16:25:21;9.90;99.90
30473;DHT22;17263;48.160;11.452;2023-01-05T16:27:51;9.90;99.90
30473;DHT22;17263;48.160;11.452;2023-01-05T16:30:38;9.80;99.90
30473;DHT22;17263;48.160;11.452;2023-01-05T16:33:05;9.70;99.90
30473;DHT22;17263;48.160;11.452;2023-01-05T16:38:38;9.60;99.90
30473;DHT22;17263;48.160;11.452;2023-01-05T16:41:08;9.60;99.90
30473;DHT22;17263;48.160;11.452;2023-01-05T16:43:45;9.50;99.90
30473;DHT22;17263;48.160;11.452;2023-01-05T16:48:47;9.40;99.90
30473;DHT22;17263;48.160;11.452;2023-01-05T16:51:20;9.30;99.90
30473;DHT22;17263;48.160;11.452;2023-01-05T16:53:52;9.30;99.90
30473;DHT22;17263;48.160;11.452;2023-01-05T16:59:31;9.30;99.90
30473;DHT22;17263;48.160;11.452;2023-01-05T17:01:57;9.20;99.90
30473;DHT22;17263;48.160;11.452;2023-01-05T17:04:23;9.30;99.90
30473;DHT22;17263;48.160;11.452;2023-01-05T17:06:50;9.30;99.90
30473;DHT22;17263;48.160;11.452;2023-01-05T17:11:51;9.20;99.90
30473;DHT22;17263;48.160;11.452;2023-01-05T17:14:18;9.20;99.90
30473;DHT22;17263;48.160;11.452;2023-01-05T17:16:45;9.20;99.90
30473;DHT22;17263;48.160;11.452;2023-01-05T17:19:12;9.20;99.90
30473;DHT22;17263;48.160;11.452;2023-01-05T17:21:43;9.20;99.90
30473;DHT22;17263;48.160;11.452;2023-01-05T17:24:12;9.20;99.90
30473;DHT22;17263;48.160;11.452;2023-01-05T17:26:40;9.20;99.90
30473;DHT22;17263;48.160;11.452;2023-01-05T17:29:13;9.20;99.90
30473;DHT22;17263;48.160;11.452;2023-01-05T17:31:41;9.20;99.90
30473;DHT22;17263;48.160;11.452;2023-01-05T17:34:07;9.20;99.90
30473;DHT22;17263;48.160;11.452;2023-01-05T17:36:34;9.20;99.90
30473;DHT22;17263;48.160;11.452;2023-01-05T17:39:00;9.10;99.90
30473;DHT22;17263;48.160;11.452;2023-01-05T17:41:26;9.10;99.90
30473;DHT22;17263;48.160;11.452;2023-01-05T17:43:52;9.10;99.90
30473;DHT22;17263;48.160;11.452;2023-01-05T17:46:21;9.10;99.90
30473;DHT22;17263;48.160;11.452;2023-01-05T17:48:48;9.10;99.90
30473;DHT22;17263;48.160;11.452;2023-01-05T17:51:14;9.10;99.90
30473;DHT22;17263;48.160;11.452;2023-01-05T17:53:40;9.20;99.90
30473;DHT22;17263;48.160;11.452;2023-01-05T17:56:07;9.20;99.90
30473;DHT22;17263;48.160;11.452;2023-01-05T17:58:33;9.10;99.90
30473;DHT22;17263;48.160;11.452;2023-01-05T18:00:59;9.10;99.90
30473;DHT22;17263;48.160;11.452;2023-01-05T18:03:25;9.10;99.90
30473;DHT22;17263;48.160;11.452;2023-01-05T18:05:51;9.20;99.90
30473;DHT22;17263;48.160;11.452;2023-01-05T18:08:19;9.20;99.90
30473;DHT22;17263;48.160;11.452;2023-01-05T18:10:45;9.20;99.90
30473;DHT22;17263;48.160;11.452;2023-01-05T18:13:12;9.20;99.90
30473;DHT22;17263;48.160;11.452;2023-01-05T18:15:42;9.20;99.90